sensor_id;sensor_type;location;lat;lon;timestamp;noise_LAeq;noise_LA_min;noise_LA_max;noise_LA01;noise_LA95
74214;Laerm;62576;55.694;37.494;2024-03-23T00:54:58;61.63;50.70;77.60;;
74214;Laerm;62576;55.694;37.494;2024-03-23T00:57:28;61.61;54.22;72.38;;
74214;Laerm;62576;55.694;37.494;2024-03-23T00:59:58;61.58;50.75;73.98;;
74214;Laerm;62576;55.694;37.494;2024-03-23T01:02:28;60.81;35.74;74.63;;
74214;Laerm;62576;55.694;37.494;2024-03-23T01:04:57;62.63;44.92;76.70;;
74214;Laerm;62576;55.694;37.494;2024-03-23T01:07:29;61.03;52.71;70.25;;
74214;Laerm;62576;55.694;37.494;2024-03-23T01:09:58;63.23;52.17;75.72;;
74214;Laerm;62576;55.694;37.494;2024-03-23T01:12:28;61.39;51.67;72.51;;
74214;Laerm;62576;55.694;37.494;2024-03-23T01:14:57;60.24;52.11;69.62;;
74214;Laerm;62576;55.694;37.494;2024-03-23T01:17:28;63.11;47.46;80.54;;
74214;Laerm;62576;55.694;37.494;2024-03-23T01:19:57;63.42;51.65;82.91;;
74214;Laerm;62576;55.694;37.494;2024-03-23T01:22:29;61.18;51.74;74.29;;
74214;Laerm;62576;55.694;37.494;2024-03-23T01:24:58;60.89;49.05;73.33;;
74214;Laerm;62576;55.694;37.494;2024-03-23T01:27:28;62.12;49.96;76.50;;
74214;Laerm;62576;55.694;37.494;2024-03-23T01:29:58;61.14;52.29;74.41;;
74214;Laerm;62576;55.694;37.494;2024-03-23T01:32:28;61.05;49.47;69.92;;
74214;Laerm;62576;55.694;37.494;2024-03-23T01:34:57;61.25;47.41;72.30;;
74214;Laerm;62576;55.694;37.494;2024-03-23T01:37:29;63.09;53.44;84.35;;
74214;Laerm;62576;55.694;37.494;2024-03-23T01:39:58;62.57;53.05;76.37;;
74214;Laerm;62576;55.694;37.494;2024-03-23T01:42:29;62.37;36.07;84.37;;
74214;Laerm;62576;55.694;37.494;2024-03-23T01:44:58;61.53;53.19;79.41;;
74214;Laerm;62576;55.694;37.494;2024-03-23T01:47:28;62.06;51.82;83.32;;
74214;Laerm;62576;55.694;37.494;2024-03-23T01:49:58;61.32;52.62;73.10;;
74214;Laerm;62576;55.694;37.494;2024-03-23T01:52:29;59.19;27.95;74.72;;
74214;Laerm;62576;55.694;37.494;2024-03-23T01:54:59;61.89;51.50;81.22;;
74214;Laerm;62576;55.694;37.494;2024-03-23T01:57:30;60.62;50.67;74.83;;
74214;Laerm;62576;55.694;37.494;2024-03-23T01:59:59;63.01;52.65;80.35;;
74214;Laerm;62576;55.694;37.494;2024-03-23T02:02:30;60.95;49.87;74.42;;
74214;Laerm;62576;55.694;37.494;2024-03-23T02:04:59;62.94;49.71;76.79;;
74214;Laerm;62576;55.694;37.494;2024-03-23T02:07:31;61.35;51.80;78.46;;
74214;Laerm;62576;55.694;37.494;2024-03-23T02:10:01;62.11;52.44;75.74;;
74214;Laerm;62576;55.694;37.494;2024-03-23T02:12:31;62.22;53.32;77.73;;
74214;Laerm;62576;55.694;37.494;2024-03-23T02:15:01;61.84;50.95;78.66;;
74214;Laerm;62576;55.694;37.494;2024-03-23T02:17:34;62.69;47.97;81.62;;
74214;Laerm;62576;55.694;37.494;2024-03-23T02:20:04;59.86;33.27;69.13;;
74214;Laerm;62576;55.694;37.494;2024-03-23T02:22:38;63.16;53.12;77.62;;
74214;Laerm;62576;55.694;37.494;2024-03-23T02:25:08;61.62;47.57;75.80;;
74214;Laerm;62576;55.694;37.494;2024-03-23T02:27:39;59.93;49.81;72.68;;
74214;Laerm;62576;55.694;37.494;2024-03-23T02:30:09;62.27;46.39;77.88;;
74214;Laerm;62576;55.694;37.494;2024-03-23T02:32:40;60.94;50.28;71.76;;
74214;Laerm;62576;55.694;37.494;2024-03-23T02:35:09;62.96;54.31;79.13;;
74214;Laerm;62576;55.694;37.494;2024-03-23T02:37:40;62.98;53.89;76.76;;
74214;Laerm;62576;55.694;37.494;2024-03-23T02:40:11;62.18;52.26;73.93;;
74214;Laerm;62576;55.694;37.494;2024-03-23T02:42:41;63.55;50.02;79.82;;
74214;Laerm;62576;55.694;37.494;2024-03-23T02:45:10;62.46;51.93;78.16;;
74214;Laerm;62576;55.694;37.494;2024-03-23T02:47:41;62.43;52.93;80.86;;
74214;Laerm;62576;55.694;37.494;2024-03-23T02:50:10;61.96;52.24;76.47;;
74214;Laerm;62576;55.694;37.494;2024-03-23T02:52:40;59.82;46.01;75.56;;
74214;Laerm;62576;55.694;37.494;2024-03-23T02:55:11;61.89;52.83;75.86;;
74214;Laerm;62576;55.694;37.494;2024-03-23T02:57:42;61.04;48.24;79.09;;
74214;Laerm;62576;55.694;37.494;2024-03-23T03:00:12;61.56;53.69;71.75;;
74214;Laerm;62576;55.694;37.494;2024-03-23T03:02:42;61.40;40.56;72.88;;
74214;Laerm;62576;55.694;37.494;2024-03-23T03:05:12;63.83;48.24;77.00;;
74214;Laerm;62576;55.694;37.494;2024-03-23T03:07:42;62.30;48.83;71.75;;
74214;Laerm;62576;55.694;37.494;2024-03-23T03:10:13;62.84;47.27;78.69;;
74214;Laerm;62576;55.694;37.494;2024-03-23T03:12:44;61.65;51.40;76.55;;
74214;Laerm;62576;55.694;37.494;2024-03-23T03:15:14;62.33;53.60;79.12;;
74214;Laerm;62576;55.694;37.494;2024-03-23T03:17:44;62.46;53.48;75.20;;
74214;Laerm;62576;55.694;37.494;2024-03-23T03:20:15;63.64;54.00;77.01;;
74214;Laerm;62576;55.694;37.494;2024-03-23T03:22:44;62.22;53.40;71.78;;
74214;Laerm;62576;55.694;37.494;2024-03-23T03:25:16;62.78;49.40;75.94;;
74214;Laerm;62576;55.694;37.494;2024-03-23T03:27:46;62.55;40.59;84.27;;
74214;Laerm;62576;55.694;37.494;2024-03-23T03:30:16;63.19;50.91;79.40;;
74214;Laerm;62576;55.694;37.494;2024-03-23T03:32:45;62.41;51.14;81.33;;
74214;Laerm;62576;55.694;37.494;2024-03-23T03:35:16;63.52;46.76;74.40;;
74214;Laerm;62576;55.694;37.494;2024-03-23T03:37:45;62.48;52.14;74.95;;
74214;Laerm;62576;55.694;37.494;2024-03-23T03:40:17;63.66;51.27;70.52;;
74214;Laerm;62576;55.694;37.494;2024-03-23T03:42:46;64.11;51.15;83.47;;
74214;Laerm;62576;55.694;37.494;2024-03-23T03:45:17;64.15;35.67;77.89;;
74214;Laerm;62576;55.694;37.494;2024-03-23T03:47:46;63.24;39.61;76.33;;
74214;Laerm;62576;55.694;37.494;2024-03-23T03:50:16;63.48;49.59;71.51;;
74214;Laerm;62576;55.694;37.494;2024-03-23T03:52:45;64.37;48.67;80.26;;
74214;Laerm;62576;55.694;37.494;2024-03-23T03:55:17;65.14;53.34;81.89;;
74214;Laerm;62576;55.694;37.494;2024-03-23T03:57:46;64.37;54.34;79.24;;
74214;Laerm;62576;55.694;37.494;2024-03-23T04:00:16;63.02;52.35;74.48;;
74214;Laerm;62576;55.694;37.494;2024-03-23T04:02:46;64.22;54.46;77.77;;
74214;Laerm;62576;55.694;37.494;2024-03-23T04:05:16;64.31;56.43;77.34;;
74214;Laerm;62576;55.694;37.494;2024-03-23T04:07:45;64.46;39.12;71.15;;
74214;Laerm;62576;55.694;37.494;2024-03-23T04:10:17;65.34;52.50;80.52;;
74214;Laerm;62576;55.694;37.494;2024-03-23T04:12:47;65.75;53.97;79.28;;
74214;Laerm;62576;55.694;37.494;2024-03-23T04:15:18;63.95;52.57;75.93;;
74214;Laerm;62576;55.694;37.494;2024-03-23T04:17:47;66.73;55.03;81.38;;
74214;Laerm;62576;55.694;37.494;2024-03-23T04:20:17;64.18;53.21;82.30;;
74214;Laerm;62576;55.694;37.494;2024-03-23T04:22:46;65.52;53.72;77.59;;
74214;Laerm;62576;55.694;37.494;2024-03-23T04:25:21;66.16;53.35;75.69;;
74214;Laerm;62576;55.694;37.494;2024-03-23T04:27:50;65.65;43.89;81.99;;
74214;Laerm;62576;55.694;37.494;2024-03-23T04:30:20;65.62;54.38;76.36;;
74214;Laerm;62576;55.694;37.494;2024-03-23T04:32:50;66.28;55.01;78.96;;
74214;Laerm;62576;55.694;37.494;2024-03-23T04:35:20;64.09;52.89;70.84;;
74214;Laerm;62576;55.694;37.494;2024-03-23T04:37:51;65.98;53.80;81.63;;
74214;Laerm;62576;55.694;37.494;2024-03-23T04:40:23;66.55;55.19;76.29;;
74214;Laerm;62576;55.694;37.494;2024-03-23T04:42:53;66.22;52.72;72.68;;
74214;Laerm;62576;55.694;37.494;2024-03-23T04:45:24;66.72;51.56;79.77;;
74214;Laerm;62576;55.694;37.494;2024-03-23T04:47:54;66.00;52.71;84.44;;
74214;Laerm;62576;55.694;37.494;2024-03-23T04:50:24;66.39;54.93;76.70;;
74214;Laerm;62576;55.694;37.494;2024-03-23T04:52:53;66.62;54.31;77.09;;
74214;Laerm;62576;55.694;37.494;2024-03-23T04:55:25;65.94;54.92;78.31;;
74214;Laerm;62576;55.694;37.494;2024-03-23T04:57:57;68.32;53.50;85.63;;
74214;Laerm;62576;55.694;37.494;2024-03-23T05:00:26;66.74;55.61;86.13;;
74214;Laerm;62576;55.694;37.494;2024-03-23T05:02:56;65.49;51.50;79.18;;
74214;Laerm;62576;55.694;37.494;2024-03-23T05:05:26;66.52;55.05;76.97;;
74214;Laerm;62576;55.694;37.494;2024-03-23T05:07:55;66.73;52.79;87.91;;
74214;Laerm;62576;55.694;37.494;2024-03-23T05:10:27;66.04;53.96;82.79;;
74214;Laerm;62576;55.694;37.494;2024-03-23T05:12:57;66.94;51.65;79.56;;
74214;Laerm;62576;55.694;37.494;2024-03-23T05:15:28;67.71;55.54;80.11;;
74214;Laerm;62576;55.694;37.494;2024-03-23T05:17:58;67.57;54.21;77.24;;
74214;Laerm;62576;55.694;37.494;2024-03-23T05:20:28;66.18;55.36;73.91;;
74214;Laerm;62576;55.694;37.494;2024-03-23T05:22:58;67.05;57.23;78.08;;
74214;Laerm;62576;55.694;37.494;2024-03-23T05:25:27;66.30;57.30;74.81;;
74214;Laerm;62576;55.694;37.494;2024-03-23T05:27:56;67.94;57.13;82.67;;
74214;Laerm;62576;55.694;37.494;2024-03-23T05:30:27;68.46;56.60;86.31;;
74214;Laerm;62576;55.694;37.494;2024-03-23T05:32:57;66.81;56.87;78.55;;
74214;Laerm;62576;55.694;37.494;2024-03-23T05:35:31;66.54;57.83;73.31;;
74214;Laerm;62576;55.694;37.494;2024-03-23T05:38:02;67.20;55.32;79.06;;
74214;Laerm;62576;55.694;37.494;2024-03-23T05:40:34;68.20;58.40;80.32;;
74214;Laerm;62576;55.694;37.494;2024-03-23T05:43:06;67.80;56.81;79.70;;
74214;Laerm;62576;55.694;37.494;2024-03-23T05:45:38;67.98;57.20;74.41;;
74214;Laerm;62576;55.694;37.494;2024-03-23T05:48:09;68.13;57.52;80.84;;
74214;Laerm;62576;55.694;37.494;2024-03-23T05:50:39;67.28;56.94;73.00;;
74214;Laerm;62576;55.694;37.494;2024-03-23T05:53:08;67.44;55.66;80.02;;
74214;Laerm;62576;55.694;37.494;2024-03-23T05:55:40;67.74;53.13;79.11;;
74214;Laerm;62576;55.694;37.494;2024-03-23T05:58:10;68.55;57.12;84.97;;
74214;Laerm;62576;55.694;37.494;2024-03-23T06:00:40;68.44;58.24;84.41;;
74214;Laerm;62576;55.694;37.494;2024-03-23T06:03:11;68.57;57.72;78.36;;
74214;Laerm;62576;55.694;37.494;2024-03-23T06:05:41;67.68;58.23;77.95;;
74214;Laerm;62576;55.694;37.494;2024-03-23T06:08:11;69.19;56.73;86.23;;
74214;Laerm;62576;55.694;37.494;2024-03-23T06:10:43;67.81;57.34;77.38;;
74214;Laerm;62576;55.694;37.494;2024-03-23T06:13:12;67.78;55.45;80.18;;
74214;Laerm;62576;55.694;37.494;2024-03-23T06:15:43;68.86;57.20;80.15;;
74214;Laerm;62576;55.694;37.494;2024-03-23T06:18:15;67.83;58.22;73.38;;
74214;Laerm;62576;55.694;37.494;2024-03-23T06:20:45;68.78;57.16;82.89;;
74214;Laerm;62576;55.694;37.494;2024-03-23T06:23:14;68.60;58.44;78.18;;
74214;Laerm;62576;55.694;37.494;2024-03-23T06:25:47;69.03;58.07;86.84;;
74214;Laerm;62576;55.694;37.494;2024-03-23T06:28:16;68.94;59.93;79.93;;
74214;Laerm;62576;55.694;37.494;2024-03-23T06:30:47;67.81;59.56;74.06;;
74214;Laerm;62576;55.694;37.494;2024-03-23T06:33:16;68.18;53.70;75.23;;
74214;Laerm;62576;55.694;37.494;2024-03-23T06:35:50;67.71;60.52;80.96;;
74214;Laerm;62576;55.694;37.494;2024-03-23T06:38:20;68.84;57.20;76.74;;
74214;Laerm;62576;55.694;37.494;2024-03-23T06:40:52;68.37;59.88;76.27;;
74214;Laerm;62576;55.694;37.494;2024-03-23T06:43:21;68.59;60.16;82.58;;
74214;Laerm;62576;55.694;37.494;2024-03-23T06:45:55;68.41;58.68;77.40;;
74214;Laerm;62576;55.694;37.494;2024-03-23T06:48:24;68.94;62.57;77.91;;
74214;Laerm;62576;55.694;37.494;2024-03-23T06:50:56;69.31;58.83;78.93;;
74214;Laerm;62576;55.694;37.494;2024-03-23T06:53:25;68.17;58.22;79.26;;
74214;Laerm;62576;55.694;37.494;2024-03-23T06:55:57;68.11;57.18;76.96;;
74214;Laerm;62576;55.694;37.494;2024-03-23T06:58:45;68.34;59.93;78.99;;
74214;Laerm;62576;55.694;37.494;2024-03-23T07:01:15;68.29;59.80;76.08;;
74214;Laerm;62576;55.694;37.494;2024-03-23T07:06:32;68.61;58.57;73.53;;
74214;Laerm;62576;55.694;37.494;2024-03-23T07:09:01;68.18;60.18;72.94;;
74214;Laerm;62576;55.694;37.494;2024-03-23T07:11:49;68.52;58.29;76.73;;
74214;Laerm;62576;55.694;37.494;2024-03-23T07:14:15;68.84;62.20;72.81;;
74214;Laerm;62576;55.694;37.494;2024-03-23T07:16:45;68.63;60.38;83.62;;
74214;Laerm;62576;55.694;37.494;2024-03-23T07:19:14;69.48;59.78;79.84;;
74214;Laerm;62576;55.694;37.494;2024-03-23T07:21:45;69.06;59.49;83.30;;
74214;Laerm;62576;55.694;37.494;2024-03-23T07:24:15;68.69;61.16;74.93;;
74214;Laerm;62576;55.694;37.494;2024-03-23T07:26:46;68.64;60.03;72.83;;
74214;Laerm;62576;55.694;37.494;2024-03-23T07:29:18;68.93;62.25;74.45;;
74214;Laerm;62576;55.694;37.494;2024-03-23T07:32:07;68.92;59.05;75.85;;
74214;Laerm;62576;55.694;37.494;2024-03-23T07:34:37;68.27;60.92;73.50;;
74214;Laerm;62576;55.694;37.494;2024-03-23T07:37:04;68.27;56.46;84.56;;
74214;Laerm;62576;55.694;37.494;2024-03-23T07:39:34;69.50;61.87;74.25;;
74214;Laerm;62576;55.694;37.494;2024-03-23T07:42:05;69.02;59.09;76.42;;
74214;Laerm;62576;55.694;37.494;2024-03-23T07:44:36;69.13;61.56;75.76;;
74214;Laerm;62576;55.694;37.494;2024-03-23T07:47:07;70.16;61.64;81.07;;
74214;Laerm;62576;55.694;37.494;2024-03-23T07:49:36;69.77;62.75;75.55;;
74214;Laerm;62576;55.694;37.494;2024-03-23T07:52:08;68.86;58.61;79.79;;
74214;Laerm;62576;55.694;37.494;2024-03-23T07:54:39;68.89;60.86;78.23;;
74214;Laerm;62576;55.694;37.494;2024-03-23T07:57:09;68.48;60.04;74.59;;
74214;Laerm;62576;55.694;37.494;2024-03-23T07:59:39;68.79;60.75;74.98;;
74214;Laerm;62576;55.694;37.494;2024-03-23T08:02:21;69.59;62.33;76.09;;
74214;Laerm;62576;55.694;37.494;2024-03-23T08:05:00;69.41;61.46;73.90;;
74214;Laerm;62576;55.694;37.494;2024-03-23T08:07:31;69.24;60.35;73.24;;
74214;Laerm;62576;55.694;37.494;2024-03-23T08:10:00;68.87;57.89;73.20;;
74214;Laerm;62576;55.694;37.494;2024-03-23T08:12:32;68.97;57.88;76.96;;
74214;Laerm;62576;55.694;37.494;2024-03-23T08:15:03;68.89;59.04;74.22;;
74214;Laerm;62576;55.694;37.494;2024-03-23T08:17:36;69.29;59.50;74.10;;
74214;Laerm;62576;55.694;37.494;2024-03-23T08:20:06;69.70;57.85;79.07;;
74214;Laerm;62576;55.694;37.494;2024-03-23T08:22:41;69.31;60.66;77.17;;
74214;Laerm;62576;55.694;37.494;2024-03-23T08:25:11;69.52;59.34;78.24;;
74214;Laerm;62576;55.694;37.494;2024-03-23T08:27:41;69.08;60.83;77.54;;
74214;Laerm;62576;55.694;37.494;2024-03-23T08:30:14;69.73;59.75;76.51;;
74214;Laerm;62576;55.694;37.494;2024-03-23T08:32:48;69.49;60.57;73.91;;
74214;Laerm;62576;55.694;37.494;2024-03-23T08:35:17;69.13;61.25;76.80;;
74214;Laerm;62576;55.694;37.494;2024-03-23T08:37:47;69.67;61.18;75.09;;
74214;Laerm;62576;55.694;37.494;2024-03-23T08:40:17;69.46;61.64;73.03;;
74214;Laerm;62576;55.694;37.494;2024-03-23T08:42:47;68.37;60.03;74.30;;
74214;Laerm;62576;55.694;37.494;2024-03-23T08:45:18;69.53;59.96;75.34;;
74214;Laerm;62576;55.694;37.494;2024-03-23T08:47:48;69.68;61.33;77.22;;
74214;Laerm;62576;55.694;37.494;2024-03-23T08:50:18;69.71;61.93;79.15;;
74214;Laerm;62576;55.694;37.494;2024-03-23T08:52:52;69.28;61.80;75.67;;
74214;Laerm;62576;55.694;37.494;2024-03-23T08:55:25;69.28;60.47;73.38;;
74214;Laerm;62576;55.694;37.494;2024-03-23T08:57:53;69.42;61.32;76.13;;
74214;Laerm;62576;55.694;37.494;2024-03-23T09:00:24;69.33;59.96;76.05;;
74214;Laerm;62576;55.694;37.494;2024-03-23T09:02:55;69.47;62.00;78.05;;
74214;Laerm;62576;55.694;37.494;2024-03-23T09:05:25;69.19;58.90;76.00;;
74214;Laerm;62576;55.694;37.494;2024-03-23T09:07:58;69.06;59.98;74.68;;
74214;Laerm;62576;55.694;37.494;2024-03-23T09:10:27;69.36;60.11;73.88;;
74214;Laerm;62576;55.694;37.494;2024-03-23T09:12:58;69.30;60.80;82.61;;
74214;Laerm;62576;55.694;37.494;2024-03-23T09:15:28;69.56;62.48;82.00;;
74214;Laerm;62576;55.694;37.494;2024-03-23T09:17:59;69.12;63.52;78.53;;
74214;Laerm;62576;55.694;37.494;2024-03-23T09:20:29;69.22;59.76;74.56;;
74214;Laerm;62576;55.694;37.494;2024-03-23T09:23:04;69.19;62.73;77.31;;
74214;Laerm;62576;55.694;37.494;2024-03-23T09:25:37;69.22;61.36;76.15;;
74214;Laerm;62576;55.694;37.494;2024-03-23T09:28:08;69.58;62.23;77.57;;
74214;Laerm;62576;55.694;37.494;2024-03-23T09:30:39;69.87;62.66;74.31;;
74214;Laerm;62576;55.694;37.494;2024-03-23T09:33:10;68.96;60.79;79.88;;
74214;Laerm;62576;55.694;37.494;2024-03-23T09:35:40;69.64;60.00;86.45;;
74214;Laerm;62576;55.694;37.494;2024-03-23T09:38:11;68.77;62.38;75.86;;
74214;Laerm;62576;55.694;37.494;2024-03-23T09:40:42;69.12;60.35;80.44;;
74214;Laerm;62576;55.694;37.494;2024-03-23T09:43:13;69.24;62.10;74.65;;
74214;Laerm;62576;55.694;37.494;2024-03-23T09:45:45;68.82;60.25;74.34;;
74214;Laerm;62576;55.694;37.494;2024-03-23T09:48:16;68.84;62.35;82.32;;
74214;Laerm;62576;55.694;37.494;2024-03-23T09:50:46;69.31;60.88;81.97;;
74214;Laerm;62576;55.694;37.494;2024-03-23T09:53:17;69.63;60.44;83.00;;
74214;Laerm;62576;55.694;37.494;2024-03-23T09:55:46;68.86;60.85;73.10;;
74214;Laerm;62576;55.694;37.494;2024-03-23T09:58:18;68.18;61.64;73.42;;
74214;Laerm;62576;55.694;37.494;2024-03-23T10:00:50;69.11;61.40;74.63;;
74214;Laerm;62576;55.694;37.494;2024-03-23T10:03:20;68.64;60.62;74.59;;
74214;Laerm;62576;55.694;37.494;2024-03-23T10:06:00;68.81;61.17;75.86;;
74214;Laerm;62576;55.694;37.494;2024-03-23T10:08:33;68.68;60.08;79.48;;
74214;Laerm;62576;55.694;37.494;2024-03-23T10:11:13;68.52;62.15;72.66;;
74214;Laerm;62576;55.694;37.494;2024-03-23T10:13:44;69.24;61.77;76.91;;
74214;Laerm;62576;55.694;37.494;2024-03-23T10:16:31;68.70;58.56;79.12;;
74214;Laerm;62576;55.694;37.494;2024-03-23T10:19:01;69.09;59.32;75.34;;
74214;Laerm;62576;55.694;37.494;2024-03-23T10:21:31;68.67;58.73;79.06;;
74214;Laerm;62576;55.694;37.494;2024-03-23T10:24:09;68.92;60.49;82.88;;
74214;Laerm;62576;55.694;37.494;2024-03-23T10:26:40;68.83;61.00;75.73;;
74214;Laerm;62576;55.694;37.494;2024-03-23T10:29:12;68.34;61.39;73.51;;
74214;Laerm;62576;55.694;37.494;2024-03-23T10:31:43;68.25;60.58;80.52;;
74214;Laerm;62576;55.694;37.494;2024-03-23T10:34:16;69.42;58.37;85.73;;
74214;Laerm;62576;55.694;37.494;2024-03-23T10:36:43;68.32;60.64;81.84;;
74214;Laerm;62576;55.694;37.494;2024-03-23T10:39:15;68.87;52.50;84.34;;
74214;Laerm;62576;55.694;37.494;2024-03-23T10:41:49;68.21;59.11;75.64;;
74214;Laerm;62576;55.694;37.494;2024-03-23T10:44:21;68.86;61.47;72.62;;
74214;Laerm;62576;55.694;37.494;2024-03-23T10:46:55;67.92;63.04;74.13;;
74214;Laerm;62576;55.694;37.494;2024-03-23T10:49:29;68.15;61.42;73.01;;
74214;Laerm;62576;55.694;37.494;2024-03-23T10:52:01;68.37;60.43;76.35;;
74214;Laerm;62576;55.694;37.494;2024-03-23T10:54:33;67.55;60.18;72.87;;
74214;Laerm;62576;55.694;37.494;2024-03-23T10:57:04;66.97;60.80;71.73;;
74214;Laerm;62576;55.694;37.494;2024-03-23T10:59:38;68.17;60.57;82.71;;
74214;Laerm;62576;55.694;37.494;2024-03-23T11:02:18;67.60;61.52;73.40;;
74214;Laerm;62576;55.694;37.494;2024-03-23T11:04:49;68.21;60.48;74.58;;
74214;Laerm;62576;55.694;37.494;2024-03-23T11:07:30;67.49;60.61;73.49;;
74214;Laerm;62576;55.694;37.494;2024-03-23T11:10:01;68.31;59.95;75.68;;
74214;Laerm;62576;55.694;37.494;2024-03-23T11:12:31;69.86;62.41;88.62;;
74214;Laerm;62576;55.694;37.494;2024-03-23T11:15:04;68.13;61.52;79.10;;
74214;Laerm;62576;55.694;37.494;2024-03-23T11:17:36;67.71;59.70;73.34;;
74214;Laerm;62576;55.694;37.494;2024-03-23T11:20:07;67.30;59.14;77.99;;
74214;Laerm;62576;55.694;37.494;2024-03-23T11:22:40;67.39;59.74;76.12;;
74214;Laerm;62576;55.694;37.494;2024-03-23T11:25:18;68.29;59.66;75.33;;
74214;Laerm;62576;55.694;37.494;2024-03-23T11:27:50;67.78;60.96;78.74;;
74214;Laerm;62576;55.694;37.494;2024-03-23T11:30:23;68.31;60.61;73.80;;
74214;Laerm;62576;55.694;37.494;2024-03-23T11:32:55;67.60;61.91;72.64;;
74214;Laerm;62576;55.694;37.494;2024-03-23T11:35:29;68.48;60.49;75.15;;
74214;Laerm;62576;55.694;37.494;2024-03-23T11:38:10;69.07;60.35;75.19;;
74214;Laerm;62576;55.694;37.494;2024-03-23T11:40:42;68.37;62.65;73.96;;
74214;Laerm;62576;55.694;37.494;2024-03-23T11:43:13;68.39;63.12;75.07;;
74214;Laerm;62576;55.694;37.494;2024-03-23T11:45:45;68.28;60.09;74.06;;
74214;Laerm;62576;55.694;37.494;2024-03-23T11:48:18;67.87;61.31;81.98;;
74214;Laerm;62576;55.694;37.494;2024-03-23T11:50:51;67.78;60.70;79.14;;
74214;Laerm;62576;55.694;37.494;2024-03-23T11:53:25;68.13;57.84;75.51;;
74214;Laerm;62576;55.694;37.494;2024-03-23T11:55:58;67.28;59.49;73.63;;
74214;Laerm;62576;55.694;37.494;2024-03-23T11:58:27;68.29;61.55;77.70;;
74214;Laerm;62576;55.694;37.494;2024-03-23T12:00:58;68.47;62.63;75.68;;
74214;Laerm;62576;55.694;37.494;2024-03-23T12:03:31;67.29;60.91;73.82;;
74214;Laerm;62576;55.694;37.494;2024-03-23T12:06:04;67.50;60.29;75.89;;
74214;Laerm;62576;55.694;37.494;2024-03-23T12:08:35;68.31;60.74;77.99;;
74214;Laerm;62576;55.694;37.494;2024-03-23T12:11:08;67.63;60.75;81.43;;
74214;Laerm;62576;55.694;37.494;2024-03-23T12:13:39;67.42;57.42;72.10;;
74214;Laerm;62576;55.694;37.494;2024-03-23T12:16:11;69.24;61.59;84.10;;
74214;Laerm;62576;55.694;37.494;2024-03-23T12:18:43;67.15;57.55;72.62;;
74214;Laerm;62576;55.694;37.494;2024-03-23T12:21:18;67.92;60.29;75.75;;
74214;Laerm;62576;55.694;37.494;2024-03-23T12:23:47;68.21;59.42;72.71;;
74214;Laerm;62576;55.694;37.494;2024-03-23T12:26:18;68.51;62.15;82.09;;
74214;Laerm;62576;55.694;37.494;2024-03-23T12:28:50;67.76;61.33;76.54;;
74214;Laerm;62576;55.694;37.494;2024-03-23T12:31:19;68.83;63.48;76.08;;
74214;Laerm;62576;55.694;37.494;2024-03-23T12:33:51;68.45;60.26;77.05;;
74214;Laerm;62576;55.694;37.494;2024-03-23T12:36:20;67.64;59.53;72.29;;
74214;Laerm;62576;55.694;37.494;2024-03-23T12:38:51;68.82;61.13;74.01;;
74214;Laerm;62576;55.694;37.494;2024-03-23T12:41:21;68.16;61.22;73.12;;
74214;Laerm;62576;55.694;37.494;2024-03-23T12:43:51;67.77;61.38;72.33;;
74214;Laerm;62576;55.694;37.494;2024-03-23T12:46:22;68.27;61.18;81.16;;
74214;Laerm;62576;55.694;37.494;2024-03-23T12:48:55;68.10;60.26;73.78;;
74214;Laerm;62576;55.694;37.494;2024-03-23T12:51:27;68.54;60.91;75.74;;
74214;Laerm;62576;55.694;37.494;2024-03-23T12:53:56;68.32;62.03;73.22;;
74214;Laerm;62576;55.694;37.494;2024-03-23T12:56:27;67.86;62.04;73.00;;
74214;Laerm;62576;55.694;37.494;2024-03-23T12:58:57;68.67;63.57;72.60;;
74214;Laerm;62576;55.694;37.494;2024-03-23T13:01:28;68.48;60.97;72.98;;
74214;Laerm;62576;55.694;37.494;2024-03-23T13:04:04;68.53;60.55;76.46;;
74214;Laerm;62576;55.694;37.494;2024-03-23T13:06:48;67.99;58.93;72.43;;
74214;Laerm;62576;55.694;37.494;2024-03-23T13:09:21;67.73;62.68;71.95;;
74214;Laerm;62576;55.694;37.494;2024-03-23T13:11:54;67.51;58.77;73.68;;
74214;Laerm;62576;55.694;37.494;2024-03-23T13:14:25;68.36;60.20;73.54;;
74214;Laerm;62576;55.694;37.494;2024-03-23T13:16:55;68.45;61.51;73.50;;
74214;Laerm;62576;55.694;37.494;2024-03-23T13:19:25;68.45;59.70;84.16;;
74214;Laerm;62576;55.694;37.494;2024-03-23T13:22:00;68.33;60.30;74.35;;
74214;Laerm;62576;55.694;37.494;2024-03-23T13:24:31;68.27;60.92;78.77;;
74214;Laerm;62576;55.694;37.494;2024-03-23T13:27:01;67.79;60.07;72.45;;
74214;Laerm;62576;55.694;37.494;2024-03-23T13:29:30;66.95;60.56;71.23;;
74214;Laerm;62576;55.694;37.494;2024-03-23T13:32:03;68.77;61.49;77.04;;
74214;Laerm;62576;55.694;37.494;2024-03-23T13:34:35;67.96;61.35;73.34;;
74214;Laerm;62576;55.694;37.494;2024-03-23T13:37:02;68.10;59.98;74.27;;
74214;Laerm;62576;55.694;37.494;2024-03-23T13:39:32;67.47;58.43;74.50;;
74214;Laerm;62576;55.694;37.494;2024-03-23T13:42:02;67.93;60.94;76.05;;
74214;Laerm;62576;55.694;37.494;2024-03-23T13:44:33;67.40;61.17;74.29;;
74214;Laerm;62576;55.694;37.494;2024-03-23T13:47:03;67.43;59.34;76.55;;
74214;Laerm;62576;55.694;37.494;2024-03-23T13:49:34;67.15;61.11;73.17;;
74214;Laerm;62576;55.694;37.494;2024-03-23T13:52:05;67.63;60.41;77.88;;
74214;Laerm;62576;55.694;37.494;2024-03-23T13:54:35;69.71;62.18;76.00;;
74214;Laerm;62576;55.694;37.494;2024-03-23T13:57:06;68.07;60.00;78.22;;
74214;Laerm;62576;55.694;37.494;2024-03-23T13:59:35;68.00;59.54;72.95;;
74214;Laerm;62576;55.694;37.494;2024-03-23T14:02:06;67.33;58.44;73.81;;
74214;Laerm;62576;55.694;37.494;2024-03-23T14:04:37;68.21;60.86;77.87;;
74214;Laerm;62576;55.694;37.494;2024-03-23T14:07:08;68.20;60.28;84.09;;
74214;Laerm;62576;55.694;37.494;2024-03-23T14:09:37;67.49;60.70;77.69;;
74214;Laerm;62576;55.694;37.494;2024-03-23T14:12:07;66.93;60.30;78.03;;
74214;Laerm;62576;55.694;37.494;2024-03-23T14:14:38;66.97;61.15;74.91;;
74214;Laerm;62576;55.694;37.494;2024-03-23T14:17:08;67.17;60.18;72.01;;
74214;Laerm;62576;55.694;37.494;2024-03-23T14:19:39;67.20;59.23;72.11;;
74214;Laerm;62576;55.694;37.494;2024-03-23T14:22:09;66.99;59.17;71.54;;
74214;Laerm;62576;55.694;37.494;2024-03-23T14:24:38;67.11;59.45;72.91;;
74214;Laerm;62576;55.694;37.494;2024-03-23T14:27:09;66.89;59.59;74.07;;
74214;Laerm;62576;55.694;37.494;2024-03-23T14:29:38;66.03;59.26;71.24;;
74214;Laerm;62576;55.694;37.494;2024-03-23T14:32:09;66.99;60.89;73.11;;
74214;Laerm;62576;55.694;37.494;2024-03-23T14:35:19;66.08;60.68;70.93;;
74214;Laerm;62576;55.694;37.494;2024-03-23T14:38:09;66.52;61.33;72.37;;
74214;Laerm;62576;55.694;37.494;2024-03-23T14:40:40;66.75;59.89;73.22;;
74214;Laerm;62576;55.694;37.494;2024-03-23T14:43:09;66.77;58.06;73.45;;
74214;Laerm;62576;55.694;37.494;2024-03-23T14:48:34;66.17;60.60;71.14;;
74214;Laerm;62576;55.694;37.494;2024-03-23T14:51:07;65.97;59.65;70.89;;
74214;Laerm;62576;55.694;37.494;2024-03-23T14:53:37;66.50;59.89;71.97;;